Terminal Aerodrome Forecast
Issued by NWS Shreveport, LA

Home | Current Version | Previous Version | Text Only | Print | Product List | Glossary On
Versions: 1 2 3 4 5 6 7 8 9 10 11 12 13 14 15
000
FTUS44 KSHV 251748
TAFLFK
TAF
KLFK 251748Z 2518/2618 14007KT P6SM VCSH SCT025 BKN035
      TEMPO 2518/2521 5SM SHRA BR BKN025
     FM252100 16006KT P6SM VCSH BKN040
     FM260300 VRB03KT P6SM FEW100 BKN250
     FM261200 36003KT 5SM BR SCT015 BKN150 OVC250
     FM261400 36006KT P6SM BKN015=

USA.gov is the U.S. government's official web portal to all federal, state and local government web resources and services.